sensor_id;sensor_type;location;lat;lon;timestamp;temperature;humidity
11188;DHT22;5650;52.700;7.306;2022-10-31T00:02:12;13.60;99.90
11188;DHT22;5650;52.700;7.306;2022-10-31T00:04:40;13.60;99.90
11188;DHT22;5650;52.700;7.306;2022-10-31T00:07:11;13.50;99.90
11188;DHT22;5650;52.700;7.306;2022-10-31T00:09:41;13.50;99.90
11188;DHT22;5650;52.700;7.306;2022-10-31T00:12:08;13.50;99.90
11188;DHT22;5650;52.700;7.306;2022-10-31T00:14:35;13.40;99.90
11188;DHT22;5650;52.700;7.306;2022-10-31T00:17:14;13.40;99.90
11188;DHT22;5650;52.700;7.306;2022-10-31T00:19:46;13.30;99.90
11188;DHT22;5650;52.700;7.306;2022-10-31T00:22:13;13.30;99.90
11188;DHT22;5650;52.700;7.306;2022-10-31T00:24:43;13.30;99.90
11188;DHT22;5650;52.700;7.306;2022-10-31T00:27:10;13.20;99.90
11188;DHT22;5650;52.700;7.306;2022-10-31T00:29:37;13.20;99.90
11188;DHT22;5650;52.700;7.306;2022-10-31T00:32:10;13.20;99.90
11188;DHT22;5650;52.700;7.306;2022-10-31T00:34:37;13.20;99.90
11188;DHT22;5650;52.700;7.306;2022-10-31T00:37:08;13.10;99.90
11188;DHT22;5650;52.700;7.306;2022-10-31T00:39:35;13.10;99.90
11188;DHT22;5650;52.700;7.306;2022-10-31T00:42:02;13.20;99.90
11188;DHT22;5650;52.700;7.306;2022-10-31T00:44:29;13.10;99.90
11188;DHT22;5650;52.700;7.306;2022-10-31T00:46:59;13.10;99.90
11188;DHT22;5650;52.700;7.306;2022-10-31T00:49:32;13.10;99.90
11188;DHT22;5650;52.700;7.306;2022-10-31T00:52:02;13.10;99.90
11188;DHT22;5650;52.700;7.306;2022-10-31T00:54:31;13.10;99.90
11188;DHT22;5650;52.700;7.306;2022-10-31T00:57:04;13.10;99.90
11188;DHT22;5650;52.700;7.306;2022-10-31T00:59:40;13.00;99.90
11188;DHT22;5650;52.700;7.306;2022-10-31T01:02:13;13.00;99.90
11188;DHT22;5650;52.700;7.306;2022-10-31T01:04:40;13.00;99.90
11188;DHT22;5650;52.700;7.306;2022-10-31T01:07:10;13.00;99.90
11188;DHT22;5650;52.700;7.306;2022-10-31T01:09:41;13.00;99.90
11188;DHT22;5650;52.700;7.306;2022-10-31T01:12:11;13.00;99.90
11188;DHT22;5650;52.700;7.306;2022-10-31T01:14:44;12.90;99.90
11188;DHT22;5650;52.700;7.306;2022-10-31T01:17:11;13.00;99.90
11188;DHT22;5650;52.700;7.306;2022-10-31T01:19:42;13.00;99.90
11188;DHT22;5650;52.700;7.306;2022-10-31T01:22:15;13.00;99.90
11188;DHT22;5650;52.700;7.306;2022-10-31T01:24:58;12.90;99.90
11188;DHT22;5650;52.700;7.306;2022-10-31T01:27:28;12.90;99.90
11188;DHT22;5650;52.700;7.306;2022-10-31T01:29:58;12.90;99.90
11188;DHT22;5650;52.700;7.306;2022-10-31T01:32:28;12.90;99.90
11188;DHT22;5650;52.700;7.306;2022-10-31T01:34:55;12.90;99.90
11188;DHT22;5650;52.700;7.306;2022-10-31T01:37:22;12.90;99.90
11188;DHT22;5650;52.700;7.306;2022-10-31T01:39:52;12.90;99.90
11188;DHT22;5650;52.700;7.306;2022-10-31T01:42:22;12.90;99.90
11188;DHT22;5650;52.700;7.306;2022-10-31T01:44:55;12.90;99.90
11188;DHT22;5650;52.700;7.306;2022-10-31T01:47:41;12.90;99.90
11188;DHT22;5650;52.700;7.306;2022-10-31T01:50:15;12.80;99.90
11188;DHT22;5650;52.700;7.306;2022-10-31T01:52:46;12.80;99.90
11188;DHT22;5650;52.700;7.306;2022-10-31T01:55:17;12.80;99.90
11188;DHT22;5650;52.700;7.306;2022-10-31T01:57:49;12.80;99.90
11188;DHT22;5650;52.700;7.306;2022-10-31T02:00:22;12.70;99.90
11188;DHT22;5650;52.700;7.306;2022-10-31T02:02:53;12.70;99.90
11188;DHT22;5650;52.700;7.306;2022-10-31T02:05:25;12.60;99.90
11188;DHT22;5650;52.700;7.306;2022-10-31T02:07:58;12.60;99.90
11188;DHT22;5650;52.700;7.306;2022-10-31T02:10:27;12.50;99.90
11188;DHT22;5650;52.700;7.306;2022-10-31T02:13:01;12.50;99.90
11188;DHT22;5650;52.700;7.306;2022-10-31T02:15:35;12.50;99.90
11188;DHT22;5650;52.700;7.306;2022-10-31T02:18:07;12.50;99.90
11188;DHT22;5650;52.700;7.306;2022-10-31T02:20:47;12.40;99.90
11188;DHT22;5650;52.700;7.306;2022-10-31T02:24:00;12.40;99.90
11188;DHT22;5650;52.700;7.306;2022-10-31T02:27:16;12.40;99.90
11188;DHT22;5650;52.700;7.306;2022-10-31T02:30:04;12.30;99.90
11188;DHT22;5650;52.700;7.306;2022-10-31T02:32:54;12.30;99.90
11188;DHT22;5650;52.700;7.306;2022-10-31T02:35:31;12.30;99.90
11188;DHT22;5650;52.700;7.306;2022-10-31T02:38:06;12.20;99.90
11188;DHT22;5650;52.700;7.306;2022-10-31T02:40:39;12.20;99.90
11188;DHT22;5650;52.700;7.306;2022-10-31T02:43:18;12.20;99.90
11188;DHT22;5650;52.700;7.306;2022-10-31T02:45:50;12.10;99.90
11188;DHT22;5650;52.700;7.306;2022-10-31T02:48:28;12.10;99.90
11188;DHT22;5650;52.700;7.306;2022-10-31T02:50:59;12.10;99.90
11188;DHT22;5650;52.700;7.306;2022-10-31T02:53:31;12.00;99.90
11188;DHT22;5650;52.700;7.306;2022-10-31T02:56:01;12.00;99.90
11188;DHT22;5650;52.700;7.306;2022-10-31T02:58:39;12.00;99.90
11188;DHT22;5650;52.700;7.306;2022-10-31T03:04:34;12.00;99.90
11188;DHT22;5650;52.700;7.306;2022-10-31T03:07:08;11.90;99.90
11188;DHT22;5650;52.700;7.306;2022-10-31T03:09:52;11.90;99.90
11188;DHT22;5650;52.700;7.306;2022-10-31T03:12:29;11.80;99.90
11188;DHT22;5650;52.700;7.306;2022-10-31T03:15:11;11.80;99.90
11188;DHT22;5650;52.700;7.306;2022-10-31T03:17:48;11.70;99.90
11188;DHT22;5650;52.700;7.306;2022-10-31T03:20:19;11.70;99.90
11188;DHT22;5650;52.700;7.306;2022-10-31T03:22:48;11.70;99.90
11188;DHT22;5650;52.700;7.306;2022-10-31T03:25:16;11.60;99.90
11188;DHT22;5650;52.700;7.306;2022-10-31T03:27:48;11.60;99.90
11188;DHT22;5650;52.700;7.306;2022-10-31T03:30:19;11.60;99.90
11188;DHT22;5650;52.700;7.306;2022-10-31T03:32:56;11.50;99.90
11188;DHT22;5650;52.700;7.306;2022-10-31T03:35:30;11.50;99.90
11188;DHT22;5650;52.700;7.306;2022-10-31T03:38:00;11.50;99.90
11188;DHT22;5650;52.700;7.306;2022-10-31T03:40:31;11.40;99.90
11188;DHT22;5650;52.700;7.306;2022-10-31T03:43:04;11.40;99.90
11188;DHT22;5650;52.700;7.306;2022-10-31T03:45:38;11.40;99.90
11188;DHT22;5650;52.700;7.306;2022-10-31T03:48:07;11.30;99.90
11188;DHT22;5650;52.700;7.306;2022-10-31T03:50:52;11.30;99.90
11188;DHT22;5650;52.700;7.306;2022-10-31T03:53:38;11.30;99.90
11188;DHT22;5650;52.700;7.306;2022-10-31T03:56:12;11.30;99.90
11188;DHT22;5650;52.700;7.306;2022-10-31T03:58:45;11.30;99.90
11188;DHT22;5650;52.700;7.306;2022-10-31T04:01:16;11.30;99.90
11188;DHT22;5650;52.700;7.306;2022-10-31T04:03:52;11.20;99.90
11188;DHT22;5650;52.700;7.306;2022-10-31T04:06:31;11.20;99.90
11188;DHT22;5650;52.700;7.306;2022-10-31T04:09:02;11.10;99.90
11188;DHT22;5650;52.700;7.306;2022-10-31T04:11:35;11.10;99.90
11188;DHT22;5650;52.700;7.306;2022-10-31T04:14:07;11.10;99.90
11188;DHT22;5650;52.700;7.306;2022-10-31T04:16:34;11.00;99.90
11188;DHT22;5650;52.700;7.306;2022-10-31T04:19:04;11.00;99.90
11188;DHT22;5650;52.700;7.306;2022-10-31T04:21:36;10.90;99.90
11188;DHT22;5650;52.700;7.306;2022-10-31T04:24:12;10.90;99.90
11188;DHT22;5650;52.700;7.306;2022-10-31T04:26:39;10.80;99.90
11188;DHT22;5650;52.700;7.306;2022-10-31T04:29:07;10.80;99.90
11188;DHT22;5650;52.700;7.306;2022-10-31T04:31:34;10.80;99.90
11188;DHT22;5650;52.700;7.306;2022-10-31T04:34:20;10.80;99.90
11188;DHT22;5650;52.700;7.306;2022-10-31T04:36:49;10.70;99.90
11188;DHT22;5650;52.700;7.306;2022-10-31T04:39:16;10.70;99.90
11188;DHT22;5650;52.700;7.306;2022-10-31T04:41:43;10.70;99.90
11188;DHT22;5650;52.700;7.306;2022-10-31T04:44:13;10.60;99.90
11188;DHT22;5650;52.700;7.306;2022-10-31T04:46:42;10.60;99.90
11188;DHT22;5650;52.700;7.306;2022-10-31T04:49:09;10.60;99.90
11188;DHT22;5650;52.700;7.306;2022-10-31T04:51:39;10.50;99.90
11188;DHT22;5650;52.700;7.306;2022-10-31T04:54:08;10.50;99.90
11188;DHT22;5650;52.700;7.306;2022-10-31T04:56:35;10.40;99.90
11188;DHT22;5650;52.700;7.306;2022-10-31T04:59:02;10.40;99.90
11188;DHT22;5650;52.700;7.306;2022-10-31T05:01:29;10.40;99.90
11188;DHT22;5650;52.700;7.306;2022-10-31T05:03:59;10.40;99.90
11188;DHT22;5650;52.700;7.306;2022-10-31T05:06:26;10.40;99.90
11188;DHT22;5650;52.700;7.306;2022-10-31T05:08:53;10.40;99.90
11188;DHT22;5650;52.700;7.306;2022-10-31T05:11:28;10.40;99.90
11188;DHT22;5650;52.700;7.306;2022-10-31T05:13:58;10.40;99.90
11188;DHT22;5650;52.700;7.306;2022-10-31T05:16:25;10.40;99.90
11188;DHT22;5650;52.700;7.306;2022-10-31T05:18:52;10.40;99.90
11188;DHT22;5650;52.700;7.306;2022-10-31T05:21:19;10.40;99.90
11188;DHT22;5650;52.700;7.306;2022-10-31T05:23:46;10.40;99.90
11188;DHT22;5650;52.700;7.306;2022-10-31T05:26:20;10.40;99.90
11188;DHT22;5650;52.700;7.306;2022-10-31T05:28:57;10.50;99.90
11188;DHT22;5650;52.700;7.306;2022-10-31T05:31:27;10.50;99.90
11188;DHT22;5650;52.700;7.306;2022-10-31T05:33:58;10.50;99.90
11188;DHT22;5650;52.700;7.306;2022-10-31T05:36:25;10.50;99.90
11188;DHT22;5650;52.700;7.306;2022-10-31T05:38:58;10.50;99.90
11188;DHT22;5650;52.700;7.306;2022-10-31T05:41:28;10.50;99.90
11188;DHT22;5650;52.700;7.306;2022-10-31T05:43:57;10.50;99.90
11188;DHT22;5650;52.700;7.306;2022-10-31T05:46:36;10.50;99.90
11188;DHT22;5650;52.700;7.306;2022-10-31T05:49:09;10.50;99.90
11188;DHT22;5650;52.700;7.306;2022-10-31T05:51:45;10.50;99.90
11188;DHT22;5650;52.700;7.306;2022-10-31T05:54:21;10.50;99.90
11188;DHT22;5650;52.700;7.306;2022-10-31T05:56:54;10.50;99.90
11188;DHT22;5650;52.700;7.306;2022-10-31T05:59:25;10.50;99.90
11188;DHT22;5650;52.700;7.306;2022-10-31T06:01:58;10.50;99.90
11188;DHT22;5650;52.700;7.306;2022-10-31T06:04:28;10.50;99.90
11188;DHT22;5650;52.700;7.306;2022-10-31T06:06:56;10.50;99.90
11188;DHT22;5650;52.700;7.306;2022-10-31T06:09:23;10.50;99.90
11188;DHT22;5650;52.700;7.306;2022-10-31T06:11:53;10.50;99.90
11188;DHT22;5650;52.700;7.306;2022-10-31T06:14:25;10.50;99.90
11188;DHT22;5650;52.700;7.306;2022-10-31T06:16:58;10.40;99.90
11188;DHT22;5650;52.700;7.306;2022-10-31T06:19:28;10.40;99.90
11188;DHT22;5650;52.700;7.306;2022-10-31T06:21:58;10.40;99.90
11188;DHT22;5650;52.700;7.306;2022-10-31T06:24:25;10.40;99.90
11188;DHT22;5650;52.700;7.306;2022-10-31T06:26:58;10.40;99.90
11188;DHT22;5650;52.700;7.306;2022-10-31T06:29:29;10.30;99.90
11188;DHT22;5650;52.700;7.306;2022-10-31T06:32:02;10.30;99.90
11188;DHT22;5650;52.700;7.306;2022-10-31T06:34:43;10.40;99.90
11188;DHT22;5650;52.700;7.306;2022-10-31T06:37:13;10.40;99.90
11188;DHT22;5650;52.700;7.306;2022-10-31T06:39:41;10.40;99.90
11188;DHT22;5650;52.700;7.306;2022-10-31T06:42:11;10.40;99.90
11188;DHT22;5650;52.700;7.306;2022-10-31T06:44:39;10.40;99.90
11188;DHT22;5650;52.700;7.306;2022-10-31T06:47:09;10.40;99.90
11188;DHT22;5650;52.700;7.306;2022-10-31T06:49:39;10.40;99.90
11188;DHT22;5650;52.700;7.306;2022-10-31T06:52:09;10.50;99.90
11188;DHT22;5650;52.700;7.306;2022-10-31T06:54:48;10.50;99.90
11188;DHT22;5650;52.700;7.306;2022-10-31T06:57:18;10.60;99.90
11188;DHT22;5650;52.700;7.306;2022-10-31T06:59:49;10.60;99.90
11188;DHT22;5650;52.700;7.306;2022-10-31T07:02:16;10.70;99.90
11188;DHT22;5650;52.700;7.306;2022-10-31T07:04:45;10.70;99.90
11188;DHT22;5650;52.700;7.306;2022-10-31T07:07:15;10.80;99.90
11188;DHT22;5650;52.700;7.306;2022-10-31T07:09:42;10.90;99.90
11188;DHT22;5650;52.700;7.306;2022-10-31T07:12:15;10.90;99.90
11188;DHT22;5650;52.700;7.306;2022-10-31T07:14:45;11.00;99.90
11188;DHT22;5650;52.700;7.306;2022-10-31T07:17:17;11.10;99.90
11188;DHT22;5650;52.700;7.306;2022-10-31T07:19:47;11.20;99.90
11188;DHT22;5650;52.700;7.306;2022-10-31T07:22:14;11.30;99.90
11188;DHT22;5650;52.700;7.306;2022-10-31T07:24:44;11.30;99.90
11188;DHT22;5650;52.700;7.306;2022-10-31T07:27:20;11.30;99.90
11188;DHT22;5650;52.700;7.306;2022-10-31T07:29:59;11.40;99.90
11188;DHT22;5650;52.700;7.306;2022-10-31T07:32:28;11.40;99.90
11188;DHT22;5650;52.700;7.306;2022-10-31T07:35:03;11.50;99.90
11188;DHT22;5650;52.700;7.306;2022-10-31T07:37:30;11.50;99.90
11188;DHT22;5650;52.700;7.306;2022-10-31T07:39:57;11.50;99.90
11188;DHT22;5650;52.700;7.306;2022-10-31T07:42:28;11.60;99.90
11188;DHT22;5650;52.700;7.306;2022-10-31T07:44:55;11.50;99.90
11188;DHT22;5650;52.700;7.306;2022-10-31T07:47:29;11.60;99.90
11188;DHT22;5650;52.700;7.306;2022-10-31T07:49:56;11.60;99.90
11188;DHT22;5650;52.700;7.306;2022-10-31T07:52:23;11.60;99.90
11188;DHT22;5650;52.700;7.306;2022-10-31T07:55:03;11.60;99.90
11188;DHT22;5650;52.700;7.306;2022-10-31T07:57:30;11.60;99.90
11188;DHT22;5650;52.700;7.306;2022-10-31T07:59:57;11.60;99.90
11188;DHT22;5650;52.700;7.306;2022-10-31T08:02:27;11.60;99.90
11188;DHT22;5650;52.700;7.306;2022-10-31T08:04:59;11.60;99.90
11188;DHT22;5650;52.700;7.306;2022-10-31T08:07:35;11.60;99.90
11188;DHT22;5650;52.700;7.306;2022-10-31T08:10:08;11.60;99.90
11188;DHT22;5650;52.700;7.306;2022-10-31T08:12:41;11.70;99.90
11188;DHT22;5650;52.700;7.306;2022-10-31T08:15:09;11.80;99.90
11188;DHT22;5650;52.700;7.306;2022-10-31T08:17:39;11.80;99.90
11188;DHT22;5650;52.700;7.306;2022-10-31T08:20:11;11.90;99.90
11188;DHT22;5650;52.700;7.306;2022-10-31T08:22:38;12.00;99.90
11188;DHT22;5650;52.700;7.306;2022-10-31T08:25:05;12.10;99.90
11188;DHT22;5650;52.700;7.306;2022-10-31T08:27:32;12.10;99.90
11188;DHT22;5650;52.700;7.306;2022-10-31T08:29:59;12.20;99.90
11188;DHT22;5650;52.700;7.306;2022-10-31T08:32:29;12.30;99.90
11188;DHT22;5650;52.700;7.306;2022-10-31T08:34:59;12.30;99.90
11188;DHT22;5650;52.700;7.306;2022-10-31T08:37:27;12.40;99.90
11188;DHT22;5650;52.700;7.306;2022-10-31T08:39:57;12.50;99.90
11188;DHT22;5650;52.700;7.306;2022-10-31T08:42:30;12.50;99.90
11188;DHT22;5650;52.700;7.306;2022-10-31T08:44:57;12.50;99.90
11188;DHT22;5650;52.700;7.306;2022-10-31T08:47:24;12.50;99.90
11188;DHT22;5650;52.700;7.306;2022-10-31T08:49:57;12.60;99.90
11188;DHT22;5650;52.700;7.306;2022-10-31T08:52:24;12.60;99.90
11188;DHT22;5650;52.700;7.306;2022-10-31T08:54:56;12.60;99.90
11188;DHT22;5650;52.700;7.306;2022-10-31T08:57:26;12.60;99.90
11188;DHT22;5650;52.700;7.306;2022-10-31T09:00:02;12.60;99.90
11188;DHT22;5650;52.700;7.306;2022-10-31T09:02:31;12.70;99.90
11188;DHT22;5650;52.700;7.306;2022-10-31T09:04:58;12.70;99.90
11188;DHT22;5650;52.700;7.306;2022-10-31T09:07:28;12.70;99.90
11188;DHT22;5650;52.700;7.306;2022-10-31T09:10:00;12.70;99.90
11188;DHT22;5650;52.700;7.306;2022-10-31T09:12:27;12.70;99.90
11188;DHT22;5650;52.700;7.306;2022-10-31T09:14:54;12.70;99.90
11188;DHT22;5650;52.700;7.306;2022-10-31T09:17:21;12.70;99.90
11188;DHT22;5650;52.700;7.306;2022-10-31T09:19:57;12.80;99.90
11188;DHT22;5650;52.700;7.306;2022-10-31T09:22:30;12.80;99.90
11188;DHT22;5650;52.700;7.306;2022-10-31T09:25:08;12.80;99.90
11188;DHT22;5650;52.700;7.306;2022-10-31T09:27:43;12.80;99.90
11188;DHT22;5650;52.700;7.306;2022-10-31T09:30:13;12.90;99.90
11188;DHT22;5650;52.700;7.306;2022-10-31T09:32:40;13.00;99.90
11188;DHT22;5650;52.700;7.306;2022-10-31T09:35:08;13.00;99.90
11188;DHT22;5650;52.700;7.306;2022-10-31T09:37:41;13.10;99.90
11188;DHT22;5650;52.700;7.306;2022-10-31T09:40:15;13.20;99.90
11188;DHT22;5650;52.700;7.306;2022-10-31T09:42:51;13.20;99.90
11188;DHT22;5650;52.700;7.306;2022-10-31T09:45:38;13.30;99.90
11188;DHT22;5650;52.700;7.306;2022-10-31T09:48:37;13.30;99.90
11188;DHT22;5650;52.700;7.306;2022-10-31T09:51:15;13.40;99.90
11188;DHT22;5650;52.700;7.306;2022-10-31T09:53:46;13.50;99.90
11188;DHT22;5650;52.700;7.306;2022-10-31T09:56:22;13.60;99.90
11188;DHT22;5650;52.700;7.306;2022-10-31T09:58:59;13.70;99.90
11188;DHT22;5650;52.700;7.306;2022-10-31T10:01:33;13.80;99.90
11188;DHT22;5650;52.700;7.306;2022-10-31T10:04:20;13.90;99.90
11188;DHT22;5650;52.700;7.306;2022-10-31T10:06:51;14.00;99.90
11188;DHT22;5650;52.700;7.306;2022-10-31T10:09:26;14.10;99.90
11188;DHT22;5650;52.700;7.306;2022-10-31T10:12:04;14.10;99.90
11188;DHT22;5650;52.700;7.306;2022-10-31T10:14:51;14.20;99.90
11188;DHT22;5650;52.700;7.306;2022-10-31T10:17:47;14.20;99.90
11188;DHT22;5650;52.700;7.306;2022-10-31T10:20:24;14.30;99.90
11188;DHT22;5650;52.700;7.306;2022-10-31T10:23:11;14.40;99.90
11188;DHT22;5650;52.700;7.306;2022-10-31T10:25:40;14.50;99.90
11188;DHT22;5650;52.700;7.306;2022-10-31T10:28:17;14.60;99.90
11188;DHT22;5650;52.700;7.306;2022-10-31T10:30:52;14.60;99.90
11188;DHT22;5650;52.700;7.306;2022-10-31T10:33:27;14.70;99.90
11188;DHT22;5650;52.700;7.306;2022-10-31T10:35:58;14.70;99.90
11188;DHT22;5650;52.700;7.306;2022-10-31T10:38:33;14.80;99.90
11188;DHT22;5650;52.700;7.306;2022-10-31T10:41:11;14.90;99.90
11188;DHT22;5650;52.700;7.306;2022-10-31T10:43:45;14.90;99.90
11188;DHT22;5650;52.700;7.306;2022-10-31T10:46:18;15.00;99.90
11188;DHT22;5650;52.700;7.306;2022-10-31T10:49:17;15.10;99.90
11188;DHT22;5650;52.700;7.306;2022-10-31T10:51:52;15.20;99.90
11188;DHT22;5650;52.700;7.306;2022-10-31T10:54:48;15.20;99.90
11188;DHT22;5650;52.700;7.306;2022-10-31T10:57:43;15.20;99.90
11188;DHT22;5650;52.700;7.306;2022-10-31T11:00:21;15.20;99.90
11188;DHT22;5650;52.700;7.306;2022-10-31T11:02:49;15.30;99.90
11188;DHT22;5650;52.700;7.306;2022-10-31T11:05:36;15.40;99.90
11188;DHT22;5650;52.700;7.306;2022-10-31T11:08:05;15.50;99.90
11188;DHT22;5650;52.700;7.306;2022-10-31T11:10:59;15.60;99.90
11188;DHT22;5650;52.700;7.306;2022-10-31T11:13:27;15.70;99.90
11188;DHT22;5650;52.700;7.306;2022-10-31T11:16:03;15.80;99.90
11188;DHT22;5650;52.700;7.306;2022-10-31T11:18:33;15.80;99.90
11188;DHT22;5650;52.700;7.306;2022-10-31T11:21:03;15.80;99.90
11188;DHT22;5650;52.700;7.306;2022-10-31T11:23:32;15.90;99.90
11188;DHT22;5650;52.700;7.306;2022-10-31T11:26:02;15.80;99.90
11188;DHT22;5650;52.700;7.306;2022-10-31T11:28:33;15.80;99.90
11188;DHT22;5650;52.700;7.306;2022-10-31T11:31:11;15.80;99.90
11188;DHT22;5650;52.700;7.306;2022-10-31T11:33:45;15.80;99.90
11188;DHT22;5650;52.700;7.306;2022-10-31T11:36:23;15.70;99.90
11188;DHT22;5650;52.700;7.306;2022-10-31T11:38:52;15.70;99.90
11188;DHT22;5650;52.700;7.306;2022-10-31T11:41:26;15.70;99.90
11188;DHT22;5650;52.700;7.306;2022-10-31T11:43:59;15.80;99.90
11188;DHT22;5650;52.700;7.306;2022-10-31T11:46:39;15.80;99.90
11188;DHT22;5650;52.700;7.306;2022-10-31T11:49:16;15.80;99.90
11188;DHT22;5650;52.700;7.306;2022-10-31T11:51:49;15.80;99.90
11188;DHT22;5650;52.700;7.306;2022-10-31T11:54:32;15.70;99.90
11188;DHT22;5650;52.700;7.306;2022-10-31T11:57:02;15.70;99.90
11188;DHT22;5650;52.700;7.306;2022-10-31T11:59:31;15.70;99.90
11188;DHT22;5650;52.700;7.306;2022-10-31T12:02:19;15.70;99.90
11188;DHT22;5650;52.700;7.306;2022-10-31T12:05:04;15.80;99.90
11188;DHT22;5650;52.700;7.306;2022-10-31T12:07:44;15.80;99.90
11188;DHT22;5650;52.700;7.306;2022-10-31T12:10:14;15.90;99.90
11188;DHT22;5650;52.700;7.306;2022-10-31T12:13:27;15.90;99.90
11188;DHT22;5650;52.700;7.306;2022-10-31T12:16:02;15.90;99.90
11188;DHT22;5650;52.700;7.306;2022-10-31T12:18:58;15.90;99.90
11188;DHT22;5650;52.700;7.306;2022-10-31T12:21:41;15.90;99.90
11188;DHT22;5650;52.700;7.306;2022-10-31T12:24:21;15.90;99.90
11188;DHT22;5650;52.700;7.306;2022-10-31T12:27:22;15.90;99.90
11188;DHT22;5650;52.700;7.306;2022-10-31T12:30:15;16.00;99.90
11188;DHT22;5650;52.700;7.306;2022-10-31T12:35:44;15.90;99.90
11188;DHT22;5650;52.700;7.306;2022-10-31T12:41:20;16.00;99.90
11188;DHT22;5650;52.700;7.306;2022-10-31T12:43:57;15.90;99.90
11188;DHT22;5650;52.700;7.306;2022-10-31T12:46:48;15.90;99.90
11188;DHT22;5650;52.700;7.306;2022-10-31T12:49:42;15.90;99.90
11188;DHT22;5650;52.700;7.306;2022-10-31T12:52:31;15.80;99.90
11188;DHT22;5650;52.700;7.306;2022-10-31T12:55:19;15.80;99.90
11188;DHT22;5650;52.700;7.306;2022-10-31T12:57:54;15.80;99.90
11188;DHT22;5650;52.700;7.306;2022-10-31T13:00:29;15.80;99.90
11188;DHT22;5650;52.700;7.306;2022-10-31T13:03:05;15.80;99.90
11188;DHT22;5650;52.700;7.306;2022-10-31T13:05:42;15.80;99.90
11188;DHT22;5650;52.700;7.306;2022-10-31T13:08:16;15.70;99.90
11188;DHT22;5650;52.700;7.306;2022-10-31T13:10:46;15.70;99.90
11188;DHT22;5650;52.700;7.306;2022-10-31T13:13:19;15.80;99.90
11188;DHT22;5650;52.700;7.306;2022-10-31T13:15:50;15.80;99.90
11188;DHT22;5650;52.700;7.306;2022-10-31T13:18:29;15.80;99.90
11188;DHT22;5650;52.700;7.306;2022-10-31T13:20:59;15.80;99.90
11188;DHT22;5650;52.700;7.306;2022-10-31T13:23:33;15.80;99.90
11188;DHT22;5650;52.700;7.306;2022-10-31T13:26:06;15.80;99.90
11188;DHT22;5650;52.700;7.306;2022-10-31T13:28:38;15.80;99.90
11188;DHT22;5650;52.700;7.306;2022-10-31T13:31:10;15.80;99.90
11188;DHT22;5650;52.700;7.306;2022-10-31T13:33:49;15.80;99.90
11188;DHT22;5650;52.700;7.306;2022-10-31T13:36:24;15.90;99.90
11188;DHT22;5650;52.700;7.306;2022-10-31T13:39:06;15.90;99.90
11188;DHT22;5650;52.700;7.306;2022-10-31T13:41:44;16.00;99.90
11188;DHT22;5650;52.700;7.306;2022-10-31T13:44:17;16.00;99.90
11188;DHT22;5650;52.700;7.306;2022-10-31T13:46:52;15.90;99.90
11188;DHT22;5650;52.700;7.306;2022-10-31T13:49:38;16.00;99.90
11188;DHT22;5650;52.700;7.306;2022-10-31T13:54:56;15.90;99.90
11188;DHT22;5650;52.700;7.306;2022-10-31T13:57:34;16.00;99.90
11188;DHT22;5650;52.700;7.306;2022-10-31T14:00:25;15.90;99.90
11188;DHT22;5650;52.700;7.306;2022-10-31T14:02:56;15.90;99.90
11188;DHT22;5650;52.700;7.306;2022-10-31T14:05:25;16.00;99.90
11188;DHT22;5650;52.700;7.306;2022-10-31T14:07:53;16.00;99.90
11188;DHT22;5650;52.700;7.306;2022-10-31T14:10:26;16.00;99.90
11188;DHT22;5650;52.700;7.306;2022-10-31T14:13:13;16.00;99.90
11188;DHT22;5650;52.700;7.306;2022-10-31T14:15:54;16.00;99.90
11188;DHT22;5650;52.700;7.306;2022-10-31T14:18:33;15.90;99.90
11188;DHT22;5650;52.700;7.306;2022-10-31T14:21:25;15.90;99.90
11188;DHT22;5650;52.700;7.306;2022-10-31T14:23:54;15.90;99.90
11188;DHT22;5650;52.700;7.306;2022-10-31T14:26:34;15.90;99.90
11188;DHT22;5650;52.700;7.306;2022-10-31T14:29:29;15.90;99.90
11188;DHT22;5650;52.700;7.306;2022-10-31T14:32:06;15.90;99.90
11188;DHT22;5650;52.700;7.306;2022-10-31T14:34:55;15.90;99.90
11188;DHT22;5650;52.700;7.306;2022-10-31T14:37:56;15.90;99.90
11188;DHT22;5650;52.700;7.306;2022-10-31T14:40:42;15.80;99.90
11188;DHT22;5650;52.700;7.306;2022-10-31T14:43:43;15.80;99.90
11188;DHT22;5650;52.700;7.306;2022-10-31T14:46:22;15.70;99.90
11188;DHT22;5650;52.700;7.306;2022-10-31T14:49:10;15.70;99.90
11188;DHT22;5650;52.700;7.306;2022-10-31T14:51:43;15.60;99.90
11188;DHT22;5650;52.700;7.306;2022-10-31T14:54:15;15.60;99.90
11188;DHT22;5650;52.700;7.306;2022-10-31T14:56:48;15.60;99.90
11188;DHT22;5650;52.700;7.306;2022-10-31T14:59:22;15.60;99.90
11188;DHT22;5650;52.700;7.306;2022-10-31T15:01:55;15.50;99.90
11188;DHT22;5650;52.700;7.306;2022-10-31T15:04:25;15.50;99.90
11188;DHT22;5650;52.700;7.306;2022-10-31T15:07:00;15.50;99.90
11188;DHT22;5650;52.700;7.306;2022-10-31T15:09:31;15.40;99.90
11188;DHT22;5650;52.700;7.306;2022-10-31T15:12:23;15.40;99.90
11188;DHT22;5650;52.700;7.306;2022-10-31T15:14:52;15.40;99.90
11188;DHT22;5650;52.700;7.306;2022-10-31T15:17:32;15.40;99.90
11188;DHT22;5650;52.700;7.306;2022-10-31T15:20:04;15.40;99.90
11188;DHT22;5650;52.700;7.306;2022-10-31T15:22:31;15.30;99.90
11188;DHT22;5650;52.700;7.306;2022-10-31T15:25:02;15.30;99.90
11188;DHT22;5650;52.700;7.306;2022-10-31T15:27:29;15.30;99.90
11188;DHT22;5650;52.700;7.306;2022-10-31T15:30:17;15.30;99.90
11188;DHT22;5650;52.700;7.306;2022-10-31T15:32:46;15.30;99.90
11188;DHT22;5650;52.700;7.306;2022-10-31T15:35:29;15.30;99.90
11188;DHT22;5650;52.700;7.306;2022-10-31T15:38:00;15.30;99.90
11188;DHT22;5650;52.700;7.306;2022-10-31T15:40:27;15.20;99.90
11188;DHT22;5650;52.700;7.306;2022-10-31T15:43:04;15.20;99.90
11188;DHT22;5650;52.700;7.306;2022-10-31T15:45:39;15.20;99.90
11188;DHT22;5650;52.700;7.306;2022-10-31T15:48:15;15.10;99.90
11188;DHT22;5650;52.700;7.306;2022-10-31T15:50:48;15.10;99.90
11188;DHT22;5650;52.700;7.306;2022-10-31T15:53:34;15.10;99.90
11188;DHT22;5650;52.700;7.306;2022-10-31T15:56:05;15.00;99.90
11188;DHT22;5650;52.700;7.306;2022-10-31T15:58:35;15.00;99.90
11188;DHT22;5650;52.700;7.306;2022-10-31T16:01:20;15.00;99.90
11188;DHT22;5650;52.700;7.306;2022-10-31T16:04:01;15.00;99.90
11188;DHT22;5650;52.700;7.306;2022-10-31T16:06:35;14.90;99.90
11188;DHT22;5650;52.700;7.306;2022-10-31T16:09:03;14.90;99.90
11188;DHT22;5650;52.700;7.306;2022-10-31T16:11:47;14.90;99.90
11188;DHT22;5650;52.700;7.306;2022-10-31T16:14:18;14.90;99.90
11188;DHT22;5650;52.700;7.306;2022-10-31T16:16:51;14.90;99.90
11188;DHT22;5650;52.700;7.306;2022-10-31T16:19:28;14.90;99.90
11188;DHT22;5650;52.700;7.306;2022-10-31T16:22:18;14.80;99.90
11188;DHT22;5650;52.700;7.306;2022-10-31T16:24:49;14.80;99.90
11188;DHT22;5650;52.700;7.306;2022-10-31T16:27:18;14.80;99.90
11188;DHT22;5650;52.700;7.306;2022-10-31T16:29:48;14.80;99.90
11188;DHT22;5650;52.700;7.306;2022-10-31T16:32:32;14.80;99.90
11188;DHT22;5650;52.700;7.306;2022-10-31T16:35:24;14.70;99.90
11188;DHT22;5650;52.700;7.306;2022-10-31T16:37:52;14.70;99.90
11188;DHT22;5650;52.700;7.306;2022-10-31T16:40:19;14.70;99.90
11188;DHT22;5650;52.700;7.306;2022-10-31T16:42:59;14.70;99.90